createdAt,value
2022-09-02T00:00:09.760Z,101302.56
2022-09-02T00:02:38.436Z,101301.22
2022-09-02T00:05:07.709Z,101309.16
2022-09-02T00:07:37.247Z,101310.06
2022-09-02T00:10:06.693Z,101311.56
2022-09-02T00:12:35.284Z,101320.09
2022-09-02T00:15:05.879Z,101320.06
2022-09-02T00:17:35.222Z,101322.78
2022-09-02T00:20:04.604Z,101333.16
2022-09-02T00:22:34.170Z,101338.59
2022-09-02T00:25:02.218Z,101339.06
2022-09-02T00:27:31.333Z,101355.56
2022-09-02T00:29:59.192Z,101341.84
2022-09-02T00:32:31.059Z,101349.66
2022-09-02T00:35:00.336Z,101346.09
2022-09-02T00:37:31.563Z,101347.41
2022-09-02T00:40:02.307Z,101347.50
2022-09-02T00:42:30.202Z,101347.63
2022-09-02T00:44:59.397Z,101348.63
2022-09-02T00:47:27.444Z,101348.22
2022-09-02T00:49:56.258Z,101354.91
2022-09-02T00:52:29.685Z,101355.47
2022-09-02T00:55:06.316Z,101352.69
2022-09-02T00:57:44.694Z,101357.31
2022-09-02T01:00:38.407Z,101355.66
2022-09-02T01:03:11.809Z,101356.09
2022-09-02T01:05:45.917Z,101362.53
2022-09-02T01:08:24.592Z,101364.53
2022-09-02T01:10:56.053Z,101369.59
2022-09-02T01:13:29.837Z,101369.22
2022-09-02T01:16:30.224Z,101378.53
2022-09-02T01:19:02.065Z,101375.84
2022-09-02T01:21:30.257Z,101381.59
2022-09-02T01:24:00.203Z,101380.94
2022-09-02T01:26:29.170Z,101388.84
2022-09-02T01:28:58.235Z,101385.31
2022-09-02T01:31:27.317Z,101385.69
2022-09-02T01:33:55.565Z,101393.59
2022-09-02T01:36:24.814Z,101387.06
2022-09-02T01:38:55.750Z,101396.81
2022-09-02T01:41:24.919Z,101400.75
2022-09-02T01:43:53.280Z,101408.81
2022-09-02T01:46:23.815Z,101403.78
2022-09-02T01:48:52.167Z,101409.47
2022-09-02T01:51:21.834Z,101408.75
2022-09-02T01:53:50.569Z,101417.66
2022-09-02T01:56:19.791Z,101422.31
2022-09-02T01:58:48.168Z,101413.19
2022-09-02T02:01:17.325Z,101428.66
2022-09-02T02:03:47.582Z,101426.78
2022-09-02T02:06:18.371Z,101422.66
2022-09-02T02:08:47.085Z,101427.34
2022-09-02T02:11:26.510Z,101430.47
2022-09-02T02:13:55.071Z,101434.06
2022-09-02T02:16:24.409Z,101429.97
2022-09-02T02:18:52.242Z,101434.06
2022-09-02T02:21:21.803Z,101439.44
2022-09-02T02:23:52.016Z,101437.72
2022-09-02T02:26:20.446Z,101441.06
2022-09-02T02:28:50.020Z,101451.56
2022-09-02T02:31:18.351Z,101448.66
2022-09-02T02:33:47.877Z,101452.00
2022-09-02T02:36:18.030Z,101454.47
2022-09-02T02:38:46.995Z,101454.34
2022-09-02T02:41:15.742Z,101460.28
2022-09-02T02:43:46.075Z,101462.59
2022-09-02T02:46:15.696Z,101463.84
2022-09-02T02:48:44.480Z,101464.94
2022-09-02T02:51:12.320Z,101463.03
2022-09-02T02:53:40.701Z,101474.38
2022-09-02T02:56:10.104Z,101461.63
2022-09-02T02:58:41.062Z,101479.41
2022-09-02T03:01:11.114Z,101475.84
2022-09-02T03:03:40.381Z,101480.84
2022-09-02T03:06:08.274Z,101479.19
2022-09-02T03:08:37.755Z,101476.25
2022-09-02T03:11:08.915Z,101488.03
2022-09-02T03:13:38.160Z,101485.50
2022-09-02T03:16:07.154Z,101490.69
2022-09-02T03:18:37.253Z,101496.47
2022-09-02T03:21:08.609Z,101494.66
2022-09-02T03:23:39.494Z,101495.75
2022-09-02T03:26:26.483Z,101496.78
2022-09-02T03:29:00.465Z,101494.50
2022-09-02T03:31:28.854Z,101508.50
2022-09-02T03:33:58.019Z,101505.94
2022-09-02T03:36:33.996Z,101511.81
2022-09-02T03:39:04.518Z,101514.91
2022-09-02T03:41:32.406Z,101515.13
2022-09-02T03:44:03.111Z,101511.34
2022-09-02T03:46:31.481Z,101512.94
2022-09-02T03:49:00.270Z,101520.00
2022-09-02T03:51:29.339Z,101517.81
2022-09-02T03:53:57.482Z,101514.06
2022-09-02T03:56:26.564Z,101514.69
2022-09-02T03:58:55.748Z,101522.13
2022-09-02T04:01:27.969Z,101520.66
2022-09-02T04:04:00.192Z,101529.22
2022-09-02T04:06:32.623Z,101528.66
2022-09-02T04:09:02.409Z,101524.72
2022-09-02T04:11:31.689Z,101543.59
2022-09-02T04:14:00.485Z,101543.19
2022-09-02T04:16:29.992Z,101538.19
2022-09-02T04:19:02.168Z,101544.50
2022-09-02T04:21:35.586Z,101547.88
2022-09-02T04:24:07.519Z,101548.63
2022-09-02T04:26:44.942Z,101550.63
2022-09-02T04:29:14.347Z,101547.00
2022-09-02T04:31:47.054Z,101554.47
2022-09-02T04:34:30.356Z,101553.72
2022-09-02T04:36:59.917Z,101562.53
2022-09-02T04:39:28.352Z,101559.19
2022-09-02T04:41:57.601Z,101564.84
2022-09-02T04:44:27.829Z,101565.88
2022-09-02T04:46:56.398Z,101565.47
2022-09-02T04:49:25.818Z,101569.19
2022-09-02T04:51:55.718Z,101578.22
2022-09-02T04:54:24.455Z,101577.16
2022-09-02T04:56:53.681Z,101571.09
2022-09-02T04:59:22.221Z,101571.06
2022-09-02T05:01:51.330Z,101570.03
2022-09-02T05:04:20.238Z,101575.53
2022-09-02T05:06:48.371Z,101573.94
2022-09-02T05:09:17.341Z,101571.66
2022-09-02T05:11:48.237Z,101571.22
2022-09-02T05:14:16.691Z,101584.09
2022-09-02T05:16:46.315Z,101580.53
2022-09-02T05:19:14.647Z,101586.44
2022-09-02T05:21:44.984Z,101583.50
2022-09-02T05:24:13.331Z,101582.19
2022-09-02T05:26:47.528Z,101586.88
2022-09-02T05:29:17.996Z,101584.66
2022-09-02T05:31:49.153Z,101593.16
2022-09-02T05:34:18.886Z,101595.13
2022-09-02T05:36:48.036Z,101587.56
2022-09-02T05:39:17.543Z,101596.78
2022-09-02T05:41:46.209Z,101600.13
2022-09-02T05:44:15.035Z,101604.78
2022-09-02T05:46:48.099Z,101612.09
2022-09-02T05:49:22.260Z,101614.50
2022-09-02T05:51:55.851Z,101612.41
2022-09-02T05:54:30.416Z,101621.44
2022-09-02T05:57:07.027Z,101630.94
2022-09-02T05:59:39.304Z,101635.97
2022-09-02T06:02:13.176Z,101629.28
2022-09-02T06:04:45.718Z,101643.75
2022-09-02T06:07:15.855Z,101652.69
2022-09-02T06:09:45.115Z,101648.66
2022-09-02T06:12:18.008Z,101649.34
2022-09-02T06:14:48.872Z,101641.88
2022-09-02T06:17:18.473Z,101644.00
2022-09-02T06:19:46.244Z,101636.38
2022-09-02T06:22:15.311Z,101633.16
2022-09-02T06:24:43.207Z,101629.81
2022-09-02T06:27:11.210Z,101634.13
2022-09-02T06:29:40.542Z,101631.38
2022-09-02T06:32:10.951Z,101640.66
2022-09-02T06:34:39.557Z,101639.47
2022-09-02T06:37:08.587Z,101632.69
2022-09-02T06:39:38.354Z,101643.88
2022-09-02T06:42:06.166Z,101630.00
2022-09-02T06:44:34.520Z,101628.72
2022-09-02T06:47:03.015Z,101630.75
2022-09-02T06:49:30.842Z,101630.91
2022-09-02T06:52:00.535Z,101625.03
2022-09-02T06:54:28.924Z,101626.78
2022-09-02T06:56:57.254Z,101629.94
2022-09-02T06:59:25.261Z,101625.59
2022-09-02T07:01:52.966Z,101621.72
2022-09-02T07:04:42.203Z,101625.72
2022-09-02T07:07:12.174Z,101625.31
2022-09-02T07:09:39.705Z,101629.66
2022-09-02T07:12:08.852Z,101633.34
2022-09-02T07:14:39.557Z,101636.97
2022-09-02T07:17:10.444Z,101632.28
2022-09-02T07:19:40.136Z,101635.22
2022-09-02T07:22:07.918Z,101637.56
2022-09-02T07:24:37.577Z,101628.50
2022-09-02T07:27:06.702Z,101634.81
2022-09-02T07:29:35.663Z,101627.91
2022-09-02T07:32:03.662Z,101628.03
2022-09-02T07:34:34.846Z,101630.94
2022-09-02T07:37:06.195Z,101630.78
2022-09-02T07:39:40.717Z,101636.84
2022-09-02T07:42:11.936Z,101629.09
2022-09-02T07:44:39.539Z,101625.03
2022-09-02T07:47:07.498Z,101623.09
2022-09-02T07:52:24.035Z,101615.16
2022-09-02T07:54:52.152Z,101619.44
2022-09-02T07:57:20.785Z,101611.59
2022-09-02T07:59:48.902Z,101619.00
2022-09-02T08:02:18.902Z,101624.75
2022-09-02T08:04:46.968Z,101621.53
2022-09-02T08:07:14.827Z,101624.94
2022-09-02T08:09:42.406Z,101622.75
2022-09-02T08:12:10.959Z,101619.19
2022-09-02T08:14:38.614Z,101624.22
2022-09-02T08:17:06.365Z,101627.41
2022-09-02T08:19:34.393Z,101623.22
2022-09-02T08:22:08.763Z,101627.13
2022-09-02T08:24:36.649Z,101620.88
2022-09-02T08:27:04.202Z,101622.41
2022-09-02T08:29:32.084Z,101626.69
2022-09-02T08:32:02.495Z,101620.75
2022-09-02T08:34:31.748Z,101626.88
2022-09-02T08:36:59.539Z,101626.59
2022-09-02T08:39:27.984Z,101636.31
2022-09-02T08:42:19.335Z,101640.03
2022-09-02T08:44:49.328Z,101631.25
2022-09-02T08:47:23.185Z,101627.38
2022-09-02T08:49:56.388Z,101633.25
2022-09-02T08:52:54.293Z,101628.69
2022-09-02T08:55:28.264Z,101632.66
2022-09-02T08:57:57.809Z,101635.56
2022-09-02T09:00:25.394Z,101632.63
2022-09-02T09:03:17.837Z,101630.47
2022-09-02T09:06:07.562Z,101627.22
2022-09-02T09:08:58.013Z,101626.88
2022-09-02T09:11:52.542Z,101616.16
2022-09-02T09:14:21.053Z,101618.28
2022-09-02T09:17:01.225Z,101631.38
2022-09-02T09:19:33.518Z,101616.78
2022-09-02T09:22:03.703Z,101622.31
2022-09-02T09:24:33.067Z,101624.34
2022-09-02T09:27:05.011Z,101615.50
2022-09-02T09:29:36.480Z,101615.19
2022-09-02T09:32:11.222Z,101613.25
2022-09-02T09:34:52.561Z,101606.97
2022-09-02T09:37:40.044Z,101613.06
2022-09-02T09:40:25.909Z,101609.41
2022-09-02T09:43:09.997Z,101618.59
2022-09-02T09:45:46.481Z,101613.44
2022-09-02T09:48:23.705Z,101620.38
2022-09-02T09:50:58.064Z,101604.88
2022-09-02T09:53:32.633Z,101612.63
2022-09-02T09:56:06.823Z,101615.72
2022-09-02T09:58:46.968Z,101627.53
2022-09-02T10:01:23.342Z,101623.06
2022-09-02T10:04:42.316Z,101627.00
2022-09-02T10:07:02.076Z,101613.19
2022-09-02T10:09:34.663Z,101617.63
2022-09-02T10:12:08.635Z,101617.09
2022-09-02T10:14:46.524Z,101606.88
2022-09-02T10:17:48.883Z,101611.03
2022-09-02T10:23:57.218Z,101612.09
2022-09-02T10:26:34.110Z,101609.88
2022-09-02T10:29:33.611Z,101612.59
2022-09-02T10:32:48.587Z,101621.94
2022-09-02T10:35:35.942Z,101625.56
2022-09-02T10:38:43.990Z,101624.53
2022-09-02T10:41:35.026Z,101619.72
2022-09-02T10:44:26.846Z,101609.25
2022-09-02T10:47:15.993Z,101613.91
2022-09-02T10:50:04.608Z,101614.22
2022-09-02T10:52:54.657Z,101617.56
2022-09-02T10:55:56.464Z,101619.78
2022-09-02T10:58:51.717Z,101616.00
2022-09-02T11:01:31.919Z,101615.41
2022-09-02T11:04:34.875Z,101598.56
2022-09-02T11:07:17.549Z,101600.53
2022-09-02T11:10:08.767Z,101604.69
2022-09-02T11:12:44.480Z,101598.28
2022-09-02T11:15:45.753Z,101596.38
2022-09-02T11:18:45.501Z,101596.88
2022-09-02T11:21:50.722Z,101603.25
2022-09-02T11:24:46.575Z,101601.88
2022-09-02T11:27:42.639Z,101592.22
2022-09-02T11:30:24.898Z,101581.69
2022-09-02T11:33:13.363Z,101588.56
2022-09-02T11:35:45.255Z,101585.28
2022-09-02T11:38:19.086Z,101591.63
2022-09-02T11:41:35.846Z,101589.41
2022-09-02T11:44:31.311Z,101599.34
2022-09-02T11:47:16.834Z,101593.84
2022-09-02T11:50:02.357Z,101580.00
2022-09-02T11:52:41.211Z,101578.38
2022-09-02T11:55:17.427Z,101576.44
2022-09-02T11:57:54.403Z,101571.75
2022-09-02T12:00:37.059Z,101561.25
2022-09-02T12:03:11.957Z,101557.38
2022-09-02T12:05:48.071Z,101560.13
2022-09-02T12:08:36.993Z,101562.63
2022-09-02T12:11:07.180Z,101555.69
2022-09-02T12:13:43.754Z,101563.44
2022-09-02T12:16:24.436Z,101553.50
2022-09-02T12:18:54.405Z,101549.00
2022-09-02T12:21:24.264Z,101551.19
2022-09-02T12:23:58.271Z,101547.72
2022-09-02T12:26:28.694Z,101546.50
2022-09-02T12:29:25.147Z,101549.63
2022-09-02T12:31:54.095Z,101545.97
2022-09-02T12:34:27.800Z,101541.09
2022-09-02T12:37:02.928Z,101544.13
2022-09-02T12:39:35.623Z,101539.28
2022-09-02T12:42:12.811Z,101538.78
2022-09-02T12:45:00.213Z,101545.06
2022-09-02T12:47:32.707Z,101539.03
2022-09-02T12:50:27.374Z,101541.13
2022-09-02T12:53:36.031Z,101542.47
2022-09-02T12:56:07.105Z,101541.78
2022-09-02T12:58:41.521Z,101539.66
2022-09-02T13:01:28.039Z,101543.44
2022-09-02T13:04:14.602Z,101534.25
2022-09-02T13:06:46.803Z,101534.66
2022-09-02T13:09:54.090Z,101535.16
2022-09-02T13:12:32.011Z,101534.72
2022-09-02T13:15:23.471Z,101531.66
2022-09-02T13:18:09.998Z,101536.78
2022-09-02T13:21:14.745Z,101530.41
2022-09-02T13:23:54.784Z,101536.13
2022-09-02T13:26:50.239Z,101532.63
2022-09-02T13:30:10.512Z,101530.59
2022-09-02T13:32:39.454Z,101526.47
2022-09-02T13:35:21.479Z,101522.63
2022-09-02T13:37:59.908Z,101521.22
2022-09-02T13:40:27.838Z,101521.44
2022-09-02T13:43:03.335Z,101524.44
2022-09-02T13:45:35.253Z,101520.06
2022-09-02T13:48:15.967Z,101524.00
2022-09-02T13:50:55.413Z,101526.25
2022-09-02T13:56:27.644Z,101526.72
2022-09-02T13:58:57.423Z,101539.47
2022-09-02T14:01:29.214Z,101531.69
2022-09-02T14:04:00.531Z,101522.47
2022-09-02T14:06:38.702Z,101529.25
2022-09-02T14:09:19.031Z,101523.84
2022-09-02T14:11:48.577Z,101524.81
2022-09-02T14:14:22.604Z,101523.06
2022-09-02T14:16:50.647Z,101528.34
2022-09-02T14:19:18.948Z,101518.22
2022-09-02T14:22:01.003Z,101518.44
2022-09-02T14:24:40.339Z,101511.59
2022-09-02T14:27:20.351Z,101515.06
2022-09-02T14:29:55.318Z,101512.03
2022-09-02T14:32:28.007Z,101510.09
2022-09-02T14:35:24.172Z,101517.22
2022-09-02T14:37:56.383Z,101521.34
2022-09-02T14:40:37.380Z,101513.06
2022-09-02T14:43:17.882Z,101523.25
2022-09-02T14:45:50.100Z,101521.84
2022-09-02T14:48:27.221Z,101524.38
2022-09-02T14:51:05.844Z,101528.53
2022-09-02T14:53:37.986Z,101536.47
2022-09-02T14:56:07.057Z,101522.53
2022-09-02T14:58:36.818Z,101528.50
2022-09-02T15:01:10.093Z,101526.53
2022-09-02T15:03:39.595Z,101532.44
2022-09-02T15:06:13.142Z,101527.97
2022-09-02T15:08:45.098Z,101521.75
2022-09-02T15:11:18.618Z,101526.88
2022-09-02T15:13:47.285Z,101527.19
2022-09-02T15:16:17.694Z,101529.00
2022-09-02T15:18:46.403Z,101517.91
2022-09-02T15:21:16.821Z,101522.16
2022-09-02T15:23:50.966Z,101516.53
2022-09-02T15:26:20.599Z,101520.34
2022-09-02T15:28:54.457Z,101524.63
2022-09-02T15:31:24.782Z,101517.19
2022-09-02T15:33:53.351Z,101523.53
2022-09-02T15:36:21.573Z,101511.31
2022-09-02T15:38:51.137Z,101529.44
2022-09-02T15:41:22.445Z,101521.66
2022-09-02T15:43:54.142Z,101511.78
2022-09-02T15:46:29.523Z,101522.78
2022-09-02T15:49:05.116Z,101523.38
2022-09-02T15:51:36.312Z,101523.06
2022-09-02T15:54:08.771Z,101532.16
2022-09-02T15:56:40.768Z,101541.72
2022-09-02T15:59:13.741Z,101538.56
2022-09-02T16:01:46.560Z,101534.13
2022-09-02T16:04:16.571Z,101535.31
2022-09-02T16:06:48.593Z,101541.72
2022-09-02T16:09:18.612Z,101533.34
2022-09-02T16:11:53.607Z,101541.22
2022-09-02T16:14:24.975Z,101543.66
2022-09-02T16:16:56.253Z,101549.44
2022-09-02T16:19:30.197Z,101541.81
2022-09-02T16:22:01.543Z,101543.75
2022-09-02T16:24:30.934Z,101540.91
2022-09-02T16:26:59.437Z,101548.78
2022-09-02T16:29:31.283Z,101560.47
2022-09-02T16:32:21.455Z,101561.31
2022-09-02T16:34:50.321Z,101573.00
2022-09-02T16:37:19.674Z,101567.84
2022-09-02T16:39:50.439Z,101572.03
2022-09-02T16:42:19.610Z,101575.22
2022-09-02T16:44:53.508Z,101580.22
2022-09-02T16:47:22.596Z,101582.56
2022-09-02T16:49:51.485Z,101577.09
2022-09-02T16:52:20.868Z,101578.75
2022-09-02T16:54:49.975Z,101586.84
2022-09-02T16:57:19.076Z,101587.78
2022-09-02T16:59:47.355Z,101589.91
2022-09-02T17:02:16.804Z,101595.53
2022-09-02T17:04:45.314Z,101597.66
2022-09-02T17:07:14.442Z,101598.22
2022-09-02T17:09:44.826Z,101599.22
2022-09-02T17:12:14.540Z,101604.69
2022-09-02T17:14:43.803Z,101602.91
2022-09-02T17:17:17.698Z,101610.41
2022-09-02T17:19:48.440Z,101606.94
2022-09-02T17:22:17.748Z,101611.66
2022-09-02T17:24:53.510Z,101609.63
2022-09-02T17:27:22.799Z,101616.19
2022-09-02T17:29:51.923Z,101618.25
2022-09-02T17:32:20.763Z,101622.63
2022-09-02T17:34:55.828Z,101617.16
2022-09-02T17:37:33.367Z,101616.81
2022-09-02T17:40:45.169Z,101619.03
2022-09-02T17:43:14.383Z,101627.38
2022-09-02T17:45:43.573Z,101631.31
2022-09-02T17:48:45.135Z,101635.97
2022-09-02T17:51:11.723Z,101627.31
2022-09-02T17:53:40.405Z,101618.50
2022-09-02T17:56:39.487Z,101624.66
2022-09-02T17:59:52.430Z,101625.03
2022-09-02T18:02:36.304Z,101617.78
2022-09-02T18:05:28.922Z,101621.69
2022-09-02T18:08:19.894Z,101614.59
2022-09-02T18:10:57.816Z,101611.63
2022-09-02T18:13:54.154Z,101604.53
2022-09-02T18:16:31.177Z,101611.19
2022-09-02T18:19:21.047Z,101614.75
2022-09-02T18:22:06.390Z,101613.56
2022-09-02T18:25:02.099Z,101616.00
2022-09-02T18:27:59.981Z,101605.81
2022-09-02T18:31:00.665Z,101615.88
2022-09-02T18:34:04.566Z,101614.09
2022-09-02T18:36:46.294Z,101611.69
2022-09-02T18:39:28.192Z,101618.09
2022-09-02T18:42:29.800Z,101613.63
2022-09-02T18:45:01.106Z,101611.34
2022-09-02T18:47:37.665Z,101608.75
2022-09-02T18:50:22.099Z,101616.31
2022-09-02T18:53:01.372Z,101612.81
2022-09-02T18:55:38.636Z,101613.28
2022-09-02T18:58:12.736Z,101624.75
2022-09-02T19:00:50.832Z,101623.75
2022-09-02T19:03:21.640Z,101617.09
2022-09-02T19:05:49.712Z,101616.44
2022-09-02T19:08:33.945Z,101611.50
2022-09-02T19:11:32.461Z,101606.34
2022-09-02T19:14:13.094Z,101609.69
2022-09-02T19:16:41.385Z,101610.16
2022-09-02T19:19:13.731Z,101612.75
2022-09-02T19:22:01.011Z,101608.63
2022-09-02T19:24:47.239Z,101613.47
2022-09-02T19:27:22.426Z,101609.78
2022-09-02T19:29:59.127Z,101618.88
2022-09-02T19:32:30.416Z,101609.69
2022-09-02T19:35:01.627Z,101614.66
2022-09-02T19:37:30.716Z,101621.91
2022-09-02T19:40:07.758Z,101618.88
2022-09-02T19:42:37.397Z,101627.97
2022-09-02T19:45:05.753Z,101616.00
2022-09-02T19:48:05.416Z,101616.94
2022-09-02T19:50:26.113Z,101614.00
2022-09-02T19:52:54.212Z,101616.19
2022-09-02T19:55:22.384Z,101619.63
2022-09-02T19:57:52.124Z,101623.72
2022-09-02T20:00:20.644Z,101627.91
2022-09-02T20:02:50.378Z,101629.84
2022-09-02T20:05:26.421Z,101621.03
2022-09-02T20:07:55.292Z,101624.16
2022-09-02T20:10:26.906Z,101621.38
2022-09-02T20:12:59.341Z,101614.75
2022-09-02T20:15:27.797Z,101612.31
2022-09-02T20:18:19.590Z,101615.13
2022-09-02T20:20:51.710Z,101616.97
2022-09-02T20:23:21.507Z,101613.63
2022-09-02T20:26:24.148Z,101609.81
2022-09-02T20:29:07.572Z,101605.56
2022-09-02T20:32:15.976Z,101609.66
2022-09-02T20:35:05.331Z,101606.78
2022-09-02T20:37:52.141Z,101607.28
2022-09-02T20:40:58.670Z,101611.19
2022-09-02T20:43:38.913Z,101619.72
2022-09-02T20:46:27.042Z,101614.34
2022-09-02T20:49:14.164Z,101614.06
2022-09-02T20:52:07.554Z,101611.94
2022-09-02T20:54:53.387Z,101626.97
2022-09-02T20:57:37.196Z,101624.53
2022-09-02T21:00:19.902Z,101621.16
2022-09-02T21:02:57.486Z,101635.72
2022-09-02T21:05:52.734Z,101630.16
2022-09-02T21:09:10.782Z,101625.78
2022-09-02T21:11:48.065Z,101631.16
2022-09-02T21:14:23.492Z,101635.22
2022-09-02T21:17:05.079Z,101636.25
2022-09-02T21:19:44.813Z,101632.47
2022-09-02T21:22:25.728Z,101632.84
2022-09-02T21:25:00.158Z,101634.88
2022-09-02T21:27:59.334Z,101632.75
2022-09-02T21:30:38.851Z,101621.06
2022-09-02T21:33:10.824Z,101617.56
2022-09-02T21:35:50.244Z,101622.75
2022-09-02T21:38:44.817Z,101620.31
2022-09-02T21:41:32.899Z,101613.31
2022-09-02T21:44:10.585Z,101611.19
2022-09-02T21:47:15.907Z,101603.75
2022-09-02T21:50:19.970Z,101609.81
2022-09-02T21:53:19.265Z,101606.09
2022-09-02T21:56:23.111Z,101606.63
2022-09-02T21:59:18.104Z,101601.13
2022-09-02T22:02:10.306Z,101605.56
2022-09-02T22:05:02.478Z,101610.13
2022-09-02T22:07:49.799Z,101601.47
2022-09-02T22:10:40.624Z,101597.38
2022-09-02T22:13:10.840Z,101597.31
2022-09-02T22:15:58.267Z,101602.22
2022-09-02T22:18:41.367Z,101600.34
2022-09-02T22:21:50.080Z,101602.06
2022-09-02T22:24:27.050Z,101599.50
2022-09-02T22:27:23.738Z,101592.72
2022-09-02T22:30:15.735Z,101596.97
2022-09-02T22:32:49.124Z,101600.50
2022-09-02T22:35:41.648Z,101596.09
2022-09-02T22:38:28.369Z,101594.19
2022-09-02T22:41:27.068Z,101597.72
2022-09-02T22:44:02.473Z,101603.50
2022-09-02T22:47:38.823Z,101596.47
2022-09-02T22:50:32.946Z,101593.41
2022-09-02T22:53:01.813Z,101588.28
2022-09-02T22:55:48.386Z,101590.00
2022-09-02T22:58:58.977Z,101588.41
2022-09-02T23:01:51.884Z,101591.09
2022-09-02T23:04:53.375Z,101581.38
2022-09-02T23:07:21.932Z,101580.94
2022-09-02T23:09:57.218Z,101577.97
2022-09-02T23:12:44.140Z,101583.19
2022-09-02T23:15:33.239Z,101581.88
2022-09-02T23:18:13.032Z,101589.75
2022-09-02T23:21:20.537Z,101591.63
2022-09-02T23:24:03.417Z,101595.88
2022-09-02T23:27:03.697Z,101603.00
2022-09-02T23:29:34.297Z,101597.22
2022-09-02T23:32:43.863Z,101589.22
2022-09-02T23:35:26.616Z,101587.97
2022-09-02T23:38:43.287Z,101591.00
2022-09-02T23:41:12.705Z,101587.66
2022-09-02T23:43:43.996Z,101588.13
2022-09-02T23:46:33.624Z,101583.84
2022-09-02T23:49:07.204Z,101589.44
2022-09-02T23:51:48.940Z,101595.97
2022-09-02T23:54:40.115Z,101590.84
2022-09-02T23:57:46.282Z,101591.88
